首页
METAR-TAF:

METAR-TAF

机场 :

伦敦斯坦斯特德机场

坦斯特德機場, 英格兰

纬度: 51-53N, 经度: 000-14E, 海拔: 106米

当前天气观测

该预报发布于32分钟前的11:20 UTC
风速10节,风向西北
温度 1°C
湿度 100%
气压 998 hPa
能见度10公里或以上
多云层高于300英尺
阴天层高于3200英尺
小雨

METAR: EGSS 271120Z AUTO 32010KT 9999 -RA BKN003 OVC032 01/01 Q0998

时间: 11:52 (11:52 UTC)

预报

该预报发布于45分钟前的11:07 UTC
预报有效从27日的 12点(UTC)到 28日的 18点(UTC)
风速12节,风向西北
能見度: 4000
多云层高于300英尺
小雪
成为
从 27日的 12点(UTC)到 27日的 14点(UTC)
能见度10公里或以上
散云层高于3000英尺
短暂存在
从 27日的 12点(UTC)到 27日的 18点(UTC)
风速17节,风向西北,有时为27节阵风
成为
从 27日的 18点(UTC)到 27日的 21点(UTC)
风速6节,风向西转西南
成为
从 28日的 08点(UTC)到 28日的 11点(UTC)
风速12节,风向南转南东
能見度: 8000
多云层高于1000英尺
小雨
短暂存在
从 28日的 09点(UTC)到 28日的 12点(UTC)
能見度: 4000
多云层高于600英尺
几率 30% :
短暂存在
从 28日的 11点(UTC)到 28日的 15点(UTC)
风速15节,风向,有时为25节阵风
成为
从 28日的 12点(UTC)到 28日的 15点(UTC)
散云层高于300英尺
多云层高于600英尺
短暂存在
从 28日的 12点(UTC)到 28日的 18点(UTC)
能見度: 3000
多云层高于300英尺
成为
从 28日的 15点(UTC)到 28日的 18点(UTC)
风速15节,风向西南
短暂存在
从 28日的 15点(UTC)到 28日的 18点(UTC)
风速17节,风向西南,有时为30节阵风

TAF: EGSS 271107Z 2712/2818 31012KT 4000 -SN BKN003 BECMG 2712/2714 9999 NSW SCT030 TEMPO 2712/2718 32017G27KT BECMG 2718/2721 24006KT BECMG 2808/2811 16012KT 8000 -RA BKN010 TEMPO 2809/2812 4000 RA BKN006 PROB30 TEMPO 2811/2815 17015G25KT BECMG 2812/2815 SCT003 BKN006 TEMPO 2812/2818 3000 RA BKN003 BECMG 2815/2818 22015KT TEMPO 2815/2818 23017G30KT

超过4000个机场的气象观测和天气预报(METAR&TAF报告)。

可查询的气象台以黄色和红色小点在地图上表示。

将鼠标移到小点上方,可查看气象台名称。

然后点击查看天气观测和预报。

如需切换地图:点击带黑十字的绿色按钮放大地图;点击带横线的绿色按钮缩小地图;或者点击绿色箭头查看邻近地区的地图。


METAR-TAF: